createdAt,value
2023-04-13T00:01:13.589Z,144307.09
2023-04-13T00:03:40.781Z,144273.19
2023-04-13T00:06:11.122Z,144347.03
2023-04-13T00:08:38.832Z,144349.44
2023-04-13T00:11:07.509Z,144322.81
2023-04-13T00:13:41.224Z,144361.56
2023-04-13T00:16:09.832Z,144372.44
2023-04-13T00:18:36.867Z,144377.25
2023-04-13T00:21:04.100Z,144386.94
2023-04-13T00:23:31.935Z,144394.22
2023-04-13T00:26:01.372Z,144399.06
2023-04-13T00:28:29.586Z,144416.00
2023-04-13T00:30:58.990Z,144363.94
2023-04-13T00:33:26.115Z,144396.66
2023-04-13T00:35:53.122Z,144384.53
2023-04-13T00:38:20.126Z,144394.22
2023-04-13T00:40:47.145Z,144403.91
2023-04-13T00:43:14.818Z,144396.66
2023-04-13T00:45:43.639Z,144396.66
2023-04-13T00:48:11.313Z,144400.25
2023-04-13T00:50:39.623Z,144408.72
2023-04-13T00:53:10.437Z,144420.84
2023-04-13T00:55:39.289Z,144435.38
2023-04-13T00:58:06.506Z,144420.84
2023-04-13T01:00:33.521Z,144401.50
2023-04-13T01:03:01.780Z,144428.09
2023-04-13T01:05:35.307Z,144377.25
2023-04-13T01:08:20.903Z,144436.56
2023-04-13T01:10:54.148Z,144455.97
2023-04-13T01:13:40.482Z,144445.06
2023-04-13T01:16:11.918Z,144440.22
2023-04-13T01:18:41.752Z,144423.25
2023-04-13T01:21:14.670Z,144426.91
2023-04-13T01:23:58.747Z,144420.84
2023-04-13T01:26:51.371Z,144371.22
2023-04-13T01:29:18.744Z,144417.22
2023-04-13T01:31:48.602Z,144420.84
2023-04-13T01:34:16.594Z,144420.84
2023-04-13T01:36:45.707Z,144428.09
2023-04-13T01:39:20.145Z,144445.06
2023-04-13T01:41:48.402Z,144435.38
2023-04-13T01:44:15.587Z,144452.34
2023-04-13T01:46:47.566Z,144469.28
2023-04-13T01:49:35.323Z,144486.22
2023-04-13T01:52:27.835Z,144497.13
2023-04-13T01:54:56.339Z,144412.38
2023-04-13T01:57:24.738Z,144494.69
2023-04-13T01:59:52.387Z,144441.41
2023-04-13T02:02:21.119Z,144505.59
2023-04-13T02:04:48.508Z,144494.69
2023-04-13T02:07:16.857Z,144488.66
2023-04-13T02:09:47.862Z,144471.69
2023-04-13T02:12:16.809Z,144486.22
2023-04-13T02:14:43.830Z,144495.88
2023-04-13T02:17:11.742Z,144494.69
2023-04-13T02:19:40.722Z,144514.06
2023-04-13T02:22:07.770Z,144483.81
2023-04-13T02:24:34.804Z,144558.84
2023-04-13T02:27:02.078Z,144566.13
2023-04-13T02:29:29.650Z,144580.66
2023-04-13T02:31:57.816Z,144594.00
2023-04-13T02:34:26.045Z,144610.97
2023-04-13T02:36:53.626Z,144632.72
2023-04-13T02:39:20.871Z,144641.22
2023-04-13T02:41:48.840Z,144627.88
2023-04-13T02:44:22.021Z,144551.63
2023-04-13T02:46:54.319Z,144672.75
2023-04-13T02:49:21.485Z,144676.41
2023-04-13T02:51:57.611Z,144687.28
2023-04-13T02:54:38.007Z,144698.22
2023-04-13T02:57:05.096Z,144680.03
2023-04-13T02:59:35.027Z,144699.41
2023-04-13T03:02:04.658Z,144692.16
2023-04-13T03:04:33.332Z,144676.41
2023-04-13T03:07:05.008Z,144704.25
2023-04-13T03:09:32.945Z,144720.03
2023-04-13T03:12:00.003Z,144720.03
2023-04-13T03:14:29.816Z,144721.22
2023-04-13T03:17:04.301Z,144699.41
2023-04-13T03:19:39.367Z,144727.28
2023-04-13T03:22:08.192Z,144699.41
2023-04-13T03:24:39.826Z,144670.34
2023-04-13T03:27:09.989Z,144709.09
2023-04-13T03:29:45.295Z,144704.25
2023-04-13T03:32:18.847Z,144701.84
2023-04-13T03:34:49.663Z,144707.91
2023-04-13T03:37:16.728Z,144709.09
2023-04-13T03:39:44.339Z,144718.78
2023-04-13T03:42:15.802Z,144721.22
2023-04-13T03:44:50.129Z,144718.78
2023-04-13T03:47:17.215Z,144625.47
2023-04-13T03:49:44.237Z,144726.06
2023-04-13T03:52:11.454Z,144700.59
2023-04-13T03:54:42.449Z,144733.34
2023-04-13T03:57:09.547Z,144687.28
2023-04-13T03:59:36.768Z,144699.41
2023-04-13T04:02:05.497Z,144745.44
2023-04-13T04:04:35.782Z,144750.28
2023-04-13T04:07:02.877Z,144740.59
2023-04-13T04:09:31.727Z,144738.19
2023-04-13T04:11:58.830Z,144755.13
2023-04-13T04:14:37.112Z,144750.28
2023-04-13T04:17:14.515Z,144759.97
2023-04-13T04:19:41.763Z,144776.94
2023-04-13T04:22:09.820Z,144761.22
2023-04-13T04:24:42.246Z,144747.88
2023-04-13T04:27:09.375Z,144755.13
2023-04-13T04:29:36.481Z,144762.41
2023-04-13T04:32:26.203Z,144756.38
2023-04-13T04:34:54.999Z,144752.72
2023-04-13T04:37:25.849Z,144768.47
2023-04-13T04:40:10.583Z,144769.72
2023-04-13T04:42:39.353Z,144706.69
2023-04-13T04:45:16.929Z,144774.56
2023-04-13T04:47:48.828Z,144764.88
2023-04-13T04:50:20.277Z,144762.41
2023-04-13T04:52:52.632Z,144781.78
2023-04-13T04:55:23.443Z,144723.63
2023-04-13T04:57:50.555Z,144781.78
2023-04-13T05:00:20.231Z,144727.28
2023-04-13T05:03:09.674Z,144762.41
2023-04-13T05:05:40.317Z,144713.94
2023-04-13T05:08:11.746Z,144757.56
2023-04-13T05:10:46.089Z,144749.09
2023-04-13T05:13:13.118Z,144744.25
2023-04-13T05:15:43.298Z,144699.41
2023-04-13T05:18:12.817Z,144762.41
2023-04-13T05:20:41.508Z,144759.97
2023-04-13T05:23:09.626Z,144774.56
2023-04-13T05:25:43.007Z,144751.53
2023-04-13T05:28:17.331Z,144761.22
2023-04-13T05:30:45.322Z,144769.72
2023-04-13T05:33:12.343Z,144738.19
2023-04-13T05:35:40.584Z,144728.50
2023-04-13T05:38:09.208Z,144687.28
2023-04-13T05:40:36.279Z,144747.88
2023-04-13T05:43:04.791Z,144767.25
2023-04-13T05:45:36.067Z,144733.34
2023-04-13T05:48:07.283Z,144747.88
2023-04-13T05:50:34.706Z,144743.03
2023-04-13T05:53:02.360Z,144716.38
2023-04-13T05:55:45.096Z,144726.06
2023-04-13T05:58:13.310Z,144713.94
2023-04-13T06:00:41.345Z,144707.91
2023-04-13T06:03:12.991Z,144792.72
2023-04-13T06:05:40.325Z,144776.94
2023-04-13T06:08:10.483Z,144747.88
2023-04-13T06:10:38.954Z,144710.34
2023-04-13T06:13:06.044Z,144726.06
2023-04-13T06:15:36.319Z,144694.56
2023-04-13T06:18:03.501Z,144752.72
2023-04-13T06:20:33.316Z,144778.16
2023-04-13T06:23:00.377Z,144826.66
2023-04-13T06:25:27.995Z,144838.78
2023-04-13T06:27:56.159Z,144847.28
2023-04-13T06:30:23.259Z,144825.44
2023-04-13T06:32:54.356Z,144827.84
2023-04-13T06:35:23.614Z,144784.25
2023-04-13T06:37:51.703Z,144827.84
2023-04-13T06:40:25.629Z,144799.97
2023-04-13T06:43:03.808Z,144769.72
2023-04-13T06:45:40.252Z,144849.66
2023-04-13T06:48:11.473Z,144813.31
2023-04-13T06:50:39.423Z,144898.16
2023-04-13T06:53:07.533Z,144867.84
2023-04-13T06:55:35.022Z,144923.59
2023-04-13T06:58:02.028Z,144964.88
2023-04-13T07:00:30.610Z,145029.13
2023-04-13T07:03:00.186Z,145002.44
2023-04-13T07:05:28.004Z,144900.56
2023-04-13T07:08:00.009Z,145010.94
2023-04-13T07:10:27.221Z,145013.34
2023-04-13T07:12:57.634Z,144907.88
2023-04-13T07:15:27.782Z,144968.47
2023-04-13T07:17:55.960Z,145007.28
2023-04-13T07:20:23.059Z,145002.44
2023-04-13T07:22:51.056Z,144975.75
2023-04-13T07:25:18.229Z,144989.09
2023-04-13T07:27:46.199Z,145041.22
2023-04-13T07:30:13.770Z,145052.16
2023-04-13T07:32:45.125Z,145024.28
2023-04-13T07:35:12.620Z,145044.88
2023-04-13T07:37:42.372Z,145048.53
2023-04-13T07:40:11.887Z,145143.16
2023-04-13T07:42:41.568Z,145223.19
2023-04-13T07:45:13.952Z,145192.91
2023-04-13T07:47:41.489Z,145109.16
2023-04-13T07:50:09.749Z,145157.69
2023-04-13T07:52:37.875Z,145162.53
2023-04-13T07:55:06.126Z,145101.91
2023-04-13T07:57:36.624Z,145065.50
2023-04-13T08:00:06.179Z,145033.97
2023-04-13T08:02:41.671Z,144920.00
2023-04-13T08:05:12.499Z,144860.59
2023-04-13T08:07:40.185Z,144907.88
2023-04-13T08:10:08.488Z,144929.69
2023-04-13T08:12:35.524Z,144910.31
2023-04-13T08:15:02.928Z,144930.91
2023-04-13T08:17:30.074Z,144958.78
2023-04-13T08:19:57.411Z,144944.22
2023-04-13T08:22:24.647Z,144920.00
2023-04-13T08:24:51.637Z,144986.66
2023-04-13T08:27:19.754Z,144932.09
2023-04-13T08:29:47.364Z,144990.31
2023-04-13T08:32:15.687Z,145017.00
2023-04-13T08:34:42.842Z,145026.69
2023-04-13T08:37:11.556Z,145032.72
2023-04-13T08:39:38.660Z,145047.31
2023-04-13T08:42:06.354Z,145014.53
2023-04-13T08:44:40.144Z,145033.97
2023-04-13T08:47:10.509Z,145060.66
2023-04-13T08:49:39.282Z,145004.84
2023-04-13T08:52:10.936Z,144990.31
2023-04-13T08:54:40.406Z,145088.56
2023-04-13T08:57:16.358Z,145087.31
2023-04-13T08:59:44.499Z,145118.84
2023-04-13T09:02:12.001Z,145121.31
2023-04-13T09:04:53.972Z,145191.66
2023-04-13T09:07:28.131Z,145247.50
2023-04-13T09:10:00.674Z,145349.47
2023-04-13T09:12:29.078Z,145429.63
2023-04-13T09:14:56.469Z,145451.44
2023-04-13T09:17:30.455Z,145504.91
2023-04-13T09:20:10.974Z,145514.59
2023-04-13T09:22:38.111Z,145560.75
2023-04-13T09:25:06.004Z,145568.06
2023-04-13T09:27:35.133Z,145581.44
2023-04-13T09:30:02.587Z,145485.47
2023-04-13T09:32:29.609Z,145523.13
2023-04-13T09:35:08.351Z,145604.50
2023-04-13T09:37:36.887Z,145605.72
2023-04-13T09:40:22.179Z,145650.66
2023-04-13T09:42:58.909Z,145684.72
2023-04-13T09:45:34.493Z,145727.28
2023-04-13T09:48:05.545Z,145677.41
2023-04-13T09:50:34.834Z,145609.38
2023-04-13T09:53:06.497Z,145548.66
2023-04-13T09:55:35.452Z,145594.78
2023-04-13T09:58:10.076Z,145593.59
2023-04-13T10:00:38.742Z,145609.38
2023-04-13T10:03:11.687Z,145538.94
2023-04-13T10:05:55.048Z,145609.38
2023-04-13T10:08:36.889Z,145631.25
2023-04-13T10:11:10.587Z,145575.38
2023-04-13T10:13:47.841Z,145541.34
2023-04-13T10:16:53.843Z,145700.53
2023-04-13T10:19:24.769Z,145647.03
2023-04-13T10:21:53.027Z,145684.72
2023-04-13T10:24:22.183Z,145726.09
2023-04-13T10:27:00.249Z,145799.00
2023-04-13T10:29:32.627Z,145847.59
2023-04-13T10:32:03.657Z,145970.41
2023-04-13T10:34:34.295Z,145983.81
2023-04-13T10:37:06.182Z,145988.66
2023-04-13T10:39:34.941Z,146044.66
2023-04-13T10:42:07.969Z,145974.06
2023-04-13T10:44:47.707Z,145927.88
2023-04-13T10:47:17.344Z,145940.03
2023-04-13T10:49:48.338Z,145988.66
2023-04-13T10:52:16.240Z,145856.13
2023-04-13T10:54:44.572Z,145876.81
2023-04-13T10:57:12.755Z,145851.25
2023-04-13T10:59:55.670Z,145859.78
2023-04-13T11:02:26.119Z,145796.56
2023-04-13T11:04:53.628Z,145786.84
2023-04-13T11:07:23.443Z,145701.75
2023-04-13T11:09:50.868Z,145643.41
2023-04-13T11:12:18.691Z,145813.59
2023-04-13T11:14:49.548Z,145813.59
2023-04-13T11:17:18.853Z,145769.81
2023-04-13T11:19:56.874Z,145901.09
2023-04-13T11:22:27.658Z,145892.59
2023-04-13T11:25:06.722Z,145879.22
2023-04-13T11:27:33.730Z,145850.06
2023-04-13T11:30:06.030Z,145888.94
2023-04-13T11:32:34.092Z,145999.63
2023-04-13T11:35:08.613Z,146016.63
2023-04-13T11:37:40.722Z,146099.44
2023-04-13T11:40:10.550Z,146207.69
2023-04-13T11:42:48.332Z,146216.22
2023-04-13T11:45:17.319Z,146228.41
2023-04-13T11:47:46.143Z,146368.38
2023-04-13T11:50:15.824Z,146159.06
2023-04-13T11:52:44.737Z,145932.72
2023-04-13T11:55:22.438Z,145636.09
2023-04-13T11:57:52.869Z,145534.06
2023-04-13T12:00:25.818Z,145546.19
2023-04-13T12:05:31.279Z,145376.19
2023-04-13T12:07:59.446Z,145247.50
2023-04-13T12:10:40.572Z,145122.50
2023-04-13T12:16:05.581Z,144984.25
2023-04-13T12:18:44.256Z,144899.38
2023-04-13T12:21:16.372Z,144825.44
2023-04-13T12:23:54.343Z,144854.50
2023-04-13T12:28:55.037Z,145089.75
2023-04-13T12:31:21.920Z,145148.00
2023-04-13T12:33:49.028Z,145232.91
2023-04-13T12:36:16.411Z,145327.63
2023-04-13T12:38:43.625Z,145339.78
2023-04-13T12:41:10.814Z,145480.63
2023-04-13T12:43:37.888Z,145662.84
2023-04-13T12:46:04.970Z,145728.50
2023-04-13T12:48:31.944Z,145791.69
2023-04-13T12:50:59.071Z,145868.28
2023-04-13T12:53:26.215Z,145864.63
2023-04-13T12:55:53.329Z,145864.63
2023-04-13T12:58:20.480Z,145833.03
2023-04-13T13:00:47.640Z,145909.63
2023-04-13T13:03:15.296Z,145881.66
2023-04-13T13:05:42.769Z,145679.84
2023-04-13T13:08:09.777Z,145746.72
2023-04-13T13:10:37.595Z,145837.88
2023-04-13T13:13:06.105Z,145750.38
2023-04-13T13:15:33.527Z,145700.53
2023-04-13T13:18:02.983Z,145716.38
2023-04-13T13:20:30.223Z,145762.53
2023-04-13T13:22:57.680Z,145640.97
2023-04-13T13:25:24.950Z,145619.06
2023-04-13T13:30:21.936Z,145557.16
2023-04-13T13:32:49.045Z,145662.84
2023-04-13T13:35:16.667Z,145657.97
2023-04-13T13:37:43.823Z,145690.78
2023-04-13T13:40:12.910Z,145670.09
2023-04-13T13:42:51.280Z,145696.84
2023-04-13T13:45:22.859Z,145794.16
2023-04-13T13:47:54.174Z,145794.16
2023-04-13T13:50:28.668Z,145862.22
2023-04-13T13:53:03.661Z,145786.84
2023-04-13T13:55:36.070Z,145823.31
2023-04-13T13:58:03.381Z,145842.75
2023-04-13T14:00:31.055Z,145841.53
2023-04-13T14:02:58.206Z,145925.41
2023-04-13T14:05:25.328Z,145835.47
2023-04-13T14:07:52.328Z,145820.84
2023-04-13T14:10:19.326Z,145768.59
2023-04-13T14:12:49.660Z,145711.50
2023-04-13T14:15:17.710Z,145752.81
2023-04-13T14:17:52.952Z,145737.00
2023-04-13T14:20:29.327Z,145755.22
2023-04-13T14:22:57.313Z,145783.19
2023-04-13T14:25:24.311Z,145836.69
2023-04-13T14:27:51.303Z,145920.56
2023-04-13T14:30:18.863Z,145978.94
2023-04-13T14:32:49.382Z,146083.59
2023-04-13T14:35:16.710Z,146095.78
2023-04-13T14:37:43.771Z,146126.16
2023-04-13T14:40:17.022Z,146084.81
2023-04-13T14:42:44.536Z,146100.63
2023-04-13T14:45:12.344Z,146095.78
2023-04-13T14:47:40.062Z,145989.91
2023-04-13T14:50:08.323Z,146051.91
2023-04-13T14:52:35.725Z,146066.50
2023-04-13T14:55:02.910Z,146120.09
2023-04-13T14:57:30.107Z,146106.72
2023-04-13T14:59:57.126Z,146202.84
2023-04-13T15:02:24.317Z,146236.94
2023-04-13T15:04:51.604Z,146268.59
2023-04-13T15:07:18.806Z,146337.97
2023-04-13T15:09:45.852Z,146395.16
2023-04-13T15:12:13.895Z,146434.19
2023-04-13T15:14:46.468Z,146490.22
2023-04-13T15:19:40.723Z,146475.59
2023-04-13T15:22:07.741Z,146557.22
2023-04-13T15:24:34.756Z,146400.03
2023-04-13T15:27:01.839Z,146529.22
2023-04-13T15:29:28.850Z,146443.94
2023-04-13T15:31:55.885Z,146517.00
2023-04-13T15:34:22.911Z,146506.06
2023-04-13T15:36:49.898Z,146507.28
2023-04-13T15:39:16.950Z,146672.97
2023-04-13T15:41:44.013Z,146674.16
2023-04-13T15:44:11.085Z,146446.41
2023-04-13T15:46:38.430Z,146437.88
2023-04-13T15:49:05.666Z,146308.72
2023-04-13T15:51:32.791Z,146239.34
2023-04-13T15:53:59.818Z,146208.94
2023-04-13T15:56:28.394Z,146245.47
2023-04-13T15:58:55.429Z,146256.41
2023-04-13T16:01:22.681Z,146246.66
2023-04-13T16:03:49.916Z,146159.06
2023-04-13T16:06:17.031Z,146161.47
2023-04-13T16:08:44.017Z,146122.56
2023-04-13T16:11:11.663Z,146123.75
2023-04-13T16:13:48.148Z,146144.41
2023-04-13T16:16:16.737Z,146107.91
2023-04-13T16:18:43.978Z,146144.41
2023-04-13T16:21:12.293Z,146229.63
2023-04-13T16:23:39.335Z,146257.59
2023-04-13T16:26:06.404Z,146424.47
2023-04-13T16:28:34.455Z,146534.09
2023-04-13T16:31:01.905Z,146963.16
2023-04-13T16:33:29.926Z,147347.63
2023-04-13T16:35:58.224Z,147566.25
2023-04-13T16:38:25.325Z,147011.97
2023-04-13T16:40:52.352Z,146848.56
2023-04-13T16:43:19.439Z,146842.44
2023-04-13T16:45:47.100Z,146968.06
2023-04-13T16:48:14.070Z,147021.72
2023-04-13T16:50:41.268Z,146943.63
2023-04-13T16:53:08.245Z,146698.56
2023-04-13T16:55:35.232Z,146575.50
2023-04-13T16:58:02.589Z,146571.84
2023-04-13T17:00:29.633Z,146412.28
2023-04-13T17:02:58.969Z,146409.88
2023-04-13T17:05:28.378Z,146375.69
2023-04-13T17:07:55.702Z,146491.41
2023-04-13T17:10:23.040Z,146379.34
2023-04-13T17:12:50.088Z,146350.13
2023-04-13T17:15:19.146Z,146319.69
2023-04-13T17:17:46.276Z,146193.09
2023-04-13T17:20:15.119Z,146165.13
2023-04-13T17:22:44.103Z,146096.97
2023-04-13T17:25:11.249Z,146135.94
2023-04-13T17:27:38.298Z,146123.75
2023-04-13T17:30:06.398Z,146078.72
2023-04-13T17:32:33.587Z,146010.56
2023-04-13T17:35:00.989Z,146048.25
2023-04-13T17:37:29.384Z,145986.25
2023-04-13T17:39:56.508Z,145929.06
2023-04-13T17:42:23.579Z,145935.19
2023-04-13T17:44:50.679Z,145908.44
2023-04-13T17:47:17.716Z,145862.22
2023-04-13T17:49:44.826Z,145885.31
2023-04-13T17:52:11.948Z,145886.53
2023-04-13T17:54:40.419Z,145779.53
2023-04-13T17:57:07.660Z,145786.84
2023-04-13T17:59:34.707Z,145812.38
2023-04-13T18:02:01.860Z,145777.13
2023-04-13T18:04:31.350Z,145727.28
2023-04-13T18:06:58.432Z,145689.56
2023-04-13T18:09:49.570Z,145685.91
2023-04-13T18:16:33.803Z,145208.66
2023-04-13T18:19:42.068Z,145378.59
2023-04-13T18:23:17.974Z,145134.66
2023-04-13T18:26:37.993Z,145211.09
2023-04-13T18:30:13.853Z,145207.44
2023-04-13T18:36:10.872Z,144912.72
2023-04-13T18:39:48.620Z,145315.50
2023-04-13T18:52:49.855Z,145021.84
2023-04-13T18:59:50.186Z,144987.91
2023-04-13T19:03:17.330Z,145177.09
2023-04-13T19:06:53.735Z,145148.00
2023-04-13T19:14:42.070Z,144658.19
2023-04-13T19:21:46.134Z,144715.19
2023-04-13T19:26:04.659Z,144583.09
2023-04-13T19:41:35.622Z,144554.00
2023-04-13T19:53:14.412Z,144510.44
2023-04-13T19:57:18.677Z,144844.81
2023-04-13T20:01:21.673Z,144835.13
2023-04-13T20:07:43.999Z,144595.19
2023-04-13T20:10:12.190Z,144629.13
2023-04-13T20:12:51.081Z,144414.81
2023-04-13T20:15:22.762Z,144755.13
2023-04-13T20:17:51.216Z,144716.38
2023-04-13T20:20:20.590Z,144753.94
2023-04-13T20:22:48.810Z,144711.53
2023-04-13T20:25:15.941Z,144743.03
2023-04-13T20:27:42.982Z,144699.41
2023-04-13T20:30:10.866Z,144667.88
2023-04-13T20:32:38.887Z,144626.69
2023-04-13T20:35:06.380Z,144665.47
2023-04-13T20:37:33.488Z,144670.34
2023-04-13T20:40:00.626Z,144619.44
2023-04-13T20:42:30.661Z,144638.81
2023-04-13T20:44:58.372Z,144612.16
2023-04-13T20:47:31.445Z,144592.78
2023-04-13T20:49:59.858Z,144619.44
2023-04-13T20:52:29.813Z,144595.19
2023-04-13T20:54:56.948Z,144474.13
2023-04-13T20:57:24.145Z,144504.38
2023-04-13T20:59:52.082Z,144554.00
2023-04-13T21:02:19.253Z,144534.66
2023-04-13T21:04:46.699Z,144541.88
2023-04-13T21:07:15.271Z,144505.59
2023-04-13T21:09:42.578Z,144493.50
2023-04-13T21:12:09.643Z,144462.00
2023-04-13T21:14:36.725Z,144368.78
2023-04-13T21:17:03.713Z,144425.69
2023-04-13T21:19:32.439Z,144425.69
2023-04-13T21:21:59.531Z,144418.41
2023-04-13T21:24:26.573Z,144428.09
2023-04-13T21:26:53.562Z,144423.25
2023-04-13T21:29:20.734Z,144437.81
2023-04-13T21:31:48.180Z,144442.66
2023-04-13T21:34:16.604Z,144486.22
2023-04-13T21:39:15.866Z,144463.22
2023-04-13T21:41:42.861Z,144432.97
2023-04-13T21:44:22.651Z,144418.41
2023-04-13T21:46:55.888Z,144440.22
2023-04-13T21:49:22.997Z,144388.19
2023-04-13T21:51:50.097Z,144394.22
2023-04-13T21:54:17.138Z,144350.63
2023-04-13T21:56:44.174Z,144391.78
2023-04-13T21:59:11.362Z,144380.91
2023-04-13T22:01:38.617Z,144355.47
2023-04-13T22:04:06.214Z,144217.56
2023-04-13T22:06:33.314Z,144297.44
2023-04-13T22:09:00.803Z,144265.97
2023-04-13T22:11:28.197Z,144282.88
2023-04-13T22:13:55.233Z,144310.75
2023-04-13T22:16:22.582Z,144284.13
2023-04-13T22:18:49.814Z,144211.53
2023-04-13T22:21:16.824Z,144193.38
2023-04-13T22:23:43.862Z,144220.00
2023-04-13T22:26:10.862Z,144230.88
2023-04-13T22:28:37.886Z,144234.50
2023-04-13T22:31:08.972Z,144241.72
2023-04-13T22:33:36.404Z,144267.16
2023-04-13T22:36:05.041Z,144256.28
2023-04-13T22:38:32.151Z,144234.50
2023-04-13T22:40:59.228Z,144227.22
2023-04-13T22:43:26.241Z,144210.28
2023-04-13T22:46:00.104Z,144217.56
2023-04-13T22:48:28.482Z,144183.72
2023-04-13T22:50:56.883Z,144218.75
2023-04-13T22:53:24.221Z,144182.47
2023-04-13T22:55:51.205Z,144186.09
2023-04-13T22:58:18.184Z,144220.00
2023-04-13T23:00:45.258Z,144203.06
2023-04-13T23:03:13.242Z,144186.09
2023-04-13T23:05:40.593Z,144103.88
2023-04-13T23:08:07.602Z,144123.22
2023-04-13T23:10:34.610Z,144122.00
2023-04-13T23:13:01.625Z,144155.84
2023-04-13T23:15:28.650Z,144140.16
2023-04-13T23:17:56.861Z,144147.44
2023-04-13T23:20:24.010Z,144088.19
2023-04-13T23:22:51.156Z,144122.00
2023-04-13T23:25:18.130Z,144132.88
2023-04-13T23:27:45.253Z,144113.53
2023-04-13T23:30:12.749Z,144147.44
2023-04-13T23:32:39.908Z,144164.31
2023-04-13T23:35:07.676Z,144131.69
2023-04-13T23:37:34.681Z,144094.22
2023-04-13T23:40:01.694Z,144166.75
2023-04-13T23:42:28.686Z,144130.50
2023-04-13T23:44:55.678Z,144111.16
2023-04-13T23:47:22.762Z,144149.81
2023-04-13T23:49:51.421Z,144140.16
2023-04-13T23:52:18.796Z,144135.31
2023-04-13T23:54:45.830Z,144161.94
2023-04-13T23:57:12.889Z,144182.47
2023-04-13T23:59:39.945Z,144115.97
